createdAt,value
2024-01-18T00:01:54.522Z,96362.13
2024-01-18T00:04:23.878Z,96359.53
2024-01-18T00:06:53.765Z,96358.53
2024-01-18T00:09:23.842Z,96362.69
2024-01-18T00:11:53.515Z,96353.97
2024-01-18T00:14:22.907Z,96355.72
2024-01-18T00:16:52.232Z,96347.78
2024-01-18T00:19:21.537Z,96345.66
2024-01-18T00:21:50.870Z,96340.84
2024-01-18T00:24:20.495Z,96330.53
2024-01-18T00:26:49.781Z,96321.44
2024-01-18T00:29:19.142Z,96315.88
2024-01-18T00:31:48.411Z,96314.91
2024-01-18T00:34:17.695Z,96321.66
2024-01-18T00:36:48.060Z,96314.72
2024-01-18T00:39:21.463Z,96307.81
2024-01-18T00:41:51.071Z,96323.47
2024-01-18T00:44:20.333Z,96319.69
2024-01-18T00:46:49.760Z,96312.72
2024-01-18T00:49:19.109Z,96303.00
2024-01-18T00:51:48.566Z,96303.63
2024-01-18T00:54:17.828Z,96294.09
2024-01-18T00:56:48.044Z,96296.66
2024-01-18T00:59:17.360Z,96286.13
2024-01-18T01:01:46.699Z,96292.50
2024-01-18T01:04:16.214Z,96295.44
2024-01-18T01:06:45.475Z,96289.69
2024-01-18T01:09:15.976Z,96279.38
2024-01-18T01:11:46.404Z,96279.59
2024-01-18T01:14:15.734Z,96280.16
2024-01-18T01:16:44.937Z,96270.63
2024-01-18T01:19:14.338Z,96272.81
2024-01-18T01:21:43.784Z,96265.44
2024-01-18T01:24:13.056Z,96249.97
2024-01-18T01:26:42.330Z,96259.91
2024-01-18T01:29:12.633Z,96255.53
2024-01-18T01:31:42.753Z,96250.16
2024-01-18T01:34:12.235Z,96242.44
2024-01-18T01:36:41.649Z,96246.75
2024-01-18T01:39:11.684Z,96238.44
2024-01-18T01:41:40.997Z,96224.53
2024-01-18T01:44:10.402Z,96214.97
2024-01-18T01:46:40.730Z,96209.41
2024-01-18T01:49:11.630Z,96215.16
2024-01-18T01:51:50.887Z,96210.59
2024-01-18T01:54:21.836Z,96206.66
2024-01-18T01:56:55.750Z,96213.41
2024-01-18T01:59:25.951Z,96202.69
2024-01-18T02:01:55.475Z,96201.75
2024-01-18T02:04:25.809Z,96195.59
2024-01-18T02:06:59.191Z,96192.41
2024-01-18T02:09:29.064Z,96192.41
2024-01-18T02:11:59.628Z,96193.00
2024-01-18T02:14:30.813Z,96179.09
2024-01-18T02:17:00.449Z,96176.09
2024-01-18T02:19:29.674Z,96171.91
2024-01-18T02:22:00.767Z,96171.28
2024-01-18T02:24:49.727Z,96162.59
2024-01-18T02:27:22.328Z,96161.38
2024-01-18T02:29:53.520Z,96155.06
2024-01-18T02:32:22.958Z,96153.03
2024-01-18T02:34:52.363Z,96154.63
2024-01-18T02:37:22.872Z,96138.94
2024-01-18T02:39:53.405Z,96132.41
2024-01-18T02:42:22.932Z,96123.09
2024-01-18T02:44:53.909Z,96123.25
2024-01-18T02:47:25.338Z,96113.72
2024-01-18T02:49:54.677Z,96103.78
2024-01-18T02:52:24.032Z,96107.31
2024-01-18T02:54:53.479Z,96109.69
2024-01-18T02:57:22.732Z,96107.66
2024-01-18T02:59:52.089Z,96098.94
2024-01-18T03:02:21.322Z,96091.78
2024-01-18T03:04:50.598Z,96094.94
2024-01-18T03:07:19.885Z,96091.94
2024-01-18T03:09:49.491Z,96088.34
2024-01-18T03:12:18.816Z,96074.22
2024-01-18T03:14:48.065Z,96076.22
2024-01-18T03:17:17.293Z,96073.88
2024-01-18T03:19:46.731Z,96089.94
2024-01-18T03:22:16.927Z,96076.22
2024-01-18T03:24:46.324Z,96072.44
2024-01-18T03:27:15.768Z,96070.44
2024-01-18T03:29:45.007Z,96064.84
2024-01-18T03:32:16.043Z,96072.59
2024-01-18T03:34:45.402Z,96078.78
2024-01-18T03:37:14.724Z,96075.75
2024-01-18T03:39:45.103Z,96064.03
2024-01-18T03:42:14.745Z,96070.75
2024-01-18T03:44:43.979Z,96083.03
2024-01-18T03:47:13.231Z,96078.06
2024-01-18T03:49:44.789Z,96075.66
2024-01-18T03:52:14.263Z,96070.50
2024-01-18T03:54:43.630Z,96070.13
2024-01-18T03:57:12.943Z,96066.91
2024-01-18T03:59:45.138Z,96061.75
2024-01-18T04:02:14.944Z,96058.13
2024-01-18T04:04:44.243Z,96060.50
2024-01-18T04:07:13.845Z,96054.13
2024-01-18T04:09:43.157Z,96061.25
2024-01-18T04:12:12.489Z,96064.84
2024-01-18T04:14:44.666Z,96061.03
2024-01-18T04:17:14.660Z,96066.34
2024-01-18T04:19:44.070Z,96054.03
2024-01-18T04:22:13.487Z,96061.53
2024-01-18T04:24:42.886Z,96051.78
2024-01-18T04:27:13.422Z,96054.75
2024-01-18T04:29:42.957Z,96054.38
2024-01-18T04:32:12.323Z,96050.78
2024-01-18T04:34:41.668Z,96056.75
2024-01-18T04:37:12.495Z,96051.44
2024-01-18T04:39:41.861Z,96048.41
2024-01-18T04:42:11.279Z,96042.25
2024-01-18T04:44:42.613Z,96055.53
2024-01-18T04:47:12.050Z,96044.97
2024-01-18T04:49:41.385Z,96049.56
2024-01-18T04:52:11.473Z,96047.00
2024-01-18T04:54:40.911Z,96048.56
2024-01-18T04:57:10.857Z,96051.94
2024-01-18T04:59:40.608Z,96044.41
2024-01-18T05:02:09.925Z,96045.19
2024-01-18T05:04:39.464Z,96041.38
2024-01-18T05:07:08.970Z,96042.75
2024-01-18T05:09:39.126Z,96039.94
2024-01-18T05:12:10.974Z,96040.94
2024-01-18T05:14:41.826Z,96046.69
2024-01-18T05:17:13.032Z,96043.91
2024-01-18T05:19:42.469Z,96037.50
2024-01-18T05:22:11.802Z,96039.06
2024-01-18T05:24:42.422Z,96044.25
2024-01-18T05:27:14.464Z,96037.16
2024-01-18T05:29:44.143Z,96049.41
2024-01-18T05:32:13.400Z,96053.00
2024-01-18T05:34:42.714Z,96050.28
2024-01-18T05:37:12.072Z,96051.88
2024-01-18T05:39:43.160Z,96040.94
2024-01-18T05:42:12.576Z,96046.91
2024-01-18T05:44:41.866Z,96050.28
2024-01-18T05:47:11.136Z,96048.91
2024-01-18T05:49:40.739Z,96050.28
2024-01-18T05:52:11.715Z,96048.84
2024-01-18T05:54:41.399Z,96050.63
2024-01-18T05:57:10.734Z,96053.44
2024-01-18T05:59:40.323Z,96059.03
2024-01-18T06:02:10.622Z,96049.88
2024-01-18T06:04:40.269Z,96058.53
2024-01-18T06:07:09.641Z,96051.00
2024-01-18T06:09:38.972Z,96064.50
2024-01-18T06:12:08.601Z,96060.41
2024-01-18T06:14:37.845Z,96055.88
2024-01-18T06:17:07.710Z,96057.94
2024-01-18T06:19:37.167Z,96067.50
2024-01-18T06:22:06.572Z,96061.50
2024-01-18T06:24:35.919Z,96071.38
2024-01-18T06:27:05.611Z,96064.19
2024-01-18T06:29:37.282Z,96066.41
2024-01-18T06:32:07.650Z,96074.63
2024-01-18T06:34:37.565Z,96066.06
2024-01-18T06:37:07.014Z,96071.81
2024-01-18T06:39:36.358Z,96071.97
2024-01-18T06:42:09.058Z,96066.38
2024-01-18T06:44:38.491Z,96067.50
2024-01-18T06:47:09.403Z,96060.13
2024-01-18T06:49:40.154Z,96072.03
2024-01-18T06:52:09.552Z,96063.91
2024-01-18T06:54:38.900Z,96067.28
2024-01-18T06:57:08.988Z,96079.63
2024-01-18T06:59:45.833Z,96069.94
2024-01-18T07:02:15.417Z,96081.63
2024-01-18T07:04:44.721Z,96079.22
2024-01-18T07:07:14.018Z,96081.59
2024-01-18T07:09:44.162Z,96091.84
2024-01-18T07:12:13.782Z,96081.88
2024-01-18T07:14:44.708Z,96077.84
2024-01-18T07:17:14.210Z,96064.22
2024-01-18T07:19:43.642Z,96059.97
2024-01-18T07:22:12.913Z,96054.72
2024-01-18T07:24:42.264Z,96061.16
2024-01-18T07:27:11.683Z,96070.66
2024-01-18T07:29:40.978Z,96066.81
2024-01-18T07:32:10.328Z,96081.53
2024-01-18T07:34:39.711Z,96075.16
2024-01-18T07:37:13.453Z,96070.34
2024-01-18T07:39:43.669Z,96067.88
2024-01-18T07:42:12.900Z,96067.47
2024-01-18T07:44:44.006Z,96063.41
2024-01-18T07:47:13.711Z,96062.41
2024-01-18T07:49:49.952Z,96061.56
2024-01-18T07:52:19.943Z,96060.31
2024-01-18T07:54:50.937Z,96062.41
2024-01-18T07:57:21.322Z,96073.75
2024-01-18T07:59:50.721Z,96075.00
2024-01-18T08:02:20.029Z,96071.75
2024-01-18T08:04:49.858Z,96072.91
2024-01-18T08:07:19.291Z,96078.78
2024-01-18T08:09:48.617Z,96076.53
2024-01-18T08:12:18.761Z,96076.88
2024-01-18T08:14:48.270Z,96077.47
2024-01-18T08:17:17.607Z,96085.34
2024-01-18T08:19:47.133Z,96085.47
2024-01-18T08:22:16.624Z,96081.56
2024-01-18T08:24:45.910Z,96094.63
2024-01-18T08:27:15.167Z,96092.50
2024-01-18T08:29:44.463Z,96099.38
2024-01-18T08:32:14.734Z,96097.16
2024-01-18T08:34:45.859Z,96094.66
2024-01-18T08:37:15.655Z,96104.94
2024-01-18T08:39:45.044Z,96094.81
2024-01-18T08:42:14.521Z,96098.63
2024-01-18T08:44:47.036Z,96095.91
2024-01-18T08:47:19.737Z,96105.03
2024-01-18T08:49:50.189Z,96096.03
2024-01-18T08:52:20.438Z,96096.06
2024-01-18T08:54:50.012Z,96103.50
2024-01-18T08:57:19.754Z,96106.19
2024-01-18T08:59:49.178Z,96108.78
2024-01-18T09:02:23.733Z,96112.97
2024-01-18T09:04:54.462Z,96114.97
2024-01-18T09:07:25.327Z,96120.28
2024-01-18T09:09:54.770Z,96109.69
2024-01-18T09:12:24.021Z,96116.00
2024-01-18T09:14:55.312Z,96113.91
2024-01-18T09:17:24.738Z,96107.38
2024-01-18T09:19:54.167Z,96107.03
2024-01-18T09:22:23.813Z,96108.72
2024-01-18T09:24:56.051Z,96107.81
2024-01-18T09:27:28.204Z,96117.16
2024-01-18T09:29:57.544Z,96117.38
2024-01-18T09:32:27.003Z,96124.00
2024-01-18T09:34:56.489Z,96121.41
2024-01-18T09:37:25.821Z,96124.88
2024-01-18T09:39:55.365Z,96125.31
2024-01-18T09:42:33.118Z,96124.63
2024-01-18T09:45:10.429Z,96123.41
2024-01-18T09:47:40.454Z,96116.22
2024-01-18T09:50:11.720Z,96118.03
2024-01-18T09:52:41.392Z,96118.16
2024-01-18T09:55:11.253Z,96115.34
2024-01-18T09:57:48.725Z,96108.88
2024-01-18T10:00:24.975Z,96107.66
2024-01-18T10:02:54.564Z,96105.28
2024-01-18T10:05:26.564Z,96110.03
2024-01-18T10:07:56.094Z,96101.66
2024-01-18T10:10:25.719Z,96095.75
2024-01-18T10:12:55.077Z,96094.19
2024-01-18T10:15:35.369Z,96093.09
2024-01-18T10:18:07.464Z,96093.00
2024-01-18T10:20:37.934Z,96092.28
2024-01-18T10:23:07.371Z,96092.28
2024-01-18T10:25:37.542Z,96097.47
2024-01-18T10:28:07.081Z,96088.19
2024-01-18T10:30:38.809Z,96086.56
2024-01-18T10:33:10.322Z,96077.63
2024-01-18T10:35:39.769Z,96082.13
2024-01-18T10:38:09.142Z,96079.38
2024-01-18T10:40:38.619Z,96081.50
2024-01-18T10:43:09.663Z,96082.53
2024-01-18T10:45:40.777Z,96076.88
2024-01-18T10:48:11.032Z,96073.72
2024-01-18T10:50:43.701Z,96066.19
2024-01-18T10:53:13.933Z,96052.47
2024-01-18T10:55:43.380Z,96057.41
2024-01-18T10:58:12.705Z,96054.25
2024-01-18T11:00:42.180Z,96057.25
2024-01-18T11:03:12.304Z,96061.03
2024-01-18T11:05:47.004Z,96057.47
2024-01-18T11:08:18.775Z,96055.59
2024-01-18T11:10:48.834Z,96047.38
2024-01-18T11:13:19.028Z,96042.97
2024-01-18T11:15:48.864Z,96042.09
2024-01-18T11:18:18.329Z,96044.16
2024-01-18T11:21:13.913Z,96052.97
2024-01-18T11:23:43.447Z,96036.28
2024-01-18T11:26:22.532Z,96036.03
2024-01-18T11:29:19.399Z,96036.63
2024-01-18T11:31:53.346Z,96035.16
2024-01-18T11:34:38.221Z,96029.91
2024-01-18T11:37:20.207Z,96029.06
2024-01-18T11:39:52.268Z,96025.53
2024-01-18T11:42:30.279Z,96029.31
2024-01-18T11:45:31.268Z,96024.22
2024-01-18T11:48:00.960Z,96022.25
2024-01-18T11:50:30.297Z,96009.88
2024-01-18T11:53:01.596Z,96012.53
2024-01-18T11:55:34.425Z,96008.75
2024-01-18T11:58:04.513Z,96008.78
2024-01-18T12:00:33.971Z,96012.47
2024-01-18T12:03:08.686Z,96003.63
2024-01-18T12:05:38.473Z,96013.53
2024-01-18T12:08:09.636Z,96006.75
2024-01-18T12:10:39.419Z,96003.31
2024-01-18T12:13:10.000Z,96001.47
2024-01-18T12:15:39.488Z,96001.97
2024-01-18T12:18:08.840Z,95990.28
2024-01-18T12:20:38.226Z,95998.69
2024-01-18T12:23:16.837Z,96001.34
2024-01-18T12:25:46.711Z,96000.81
2024-01-18T12:28:16.144Z,95993.28
2024-01-18T12:30:46.756Z,95998.72
2024-01-18T12:33:16.480Z,95982.47
2024-01-18T12:35:47.518Z,95990.97
2024-01-18T12:38:17.683Z,95983.28
2024-01-18T12:40:47.106Z,95981.59
2024-01-18T12:43:17.273Z,95987.94
2024-01-18T12:45:52.651Z,95990.66
2024-01-18T12:48:23.783Z,96001.88
2024-01-18T12:50:53.635Z,95998.66
2024-01-18T12:53:25.176Z,96006.25
2024-01-18T12:55:54.577Z,96014.16
2024-01-18T12:58:23.976Z,96012.28
2024-01-18T13:00:53.367Z,95999.53
2024-01-18T13:03:22.996Z,96007.63
2024-01-18T13:05:54.357Z,96002.19
2024-01-18T13:08:23.778Z,95999.59
2024-01-18T13:10:53.433Z,95993.03
2024-01-18T13:13:23.612Z,96011.19
2024-01-18T13:15:52.988Z,96004.78
2024-01-18T13:18:22.477Z,96012.91
2024-01-18T13:20:52.294Z,96014.03
2024-01-18T13:23:21.969Z,96014.66
2024-01-18T13:25:52.745Z,96005.75
2024-01-18T13:28:22.431Z,96014.03
2024-01-18T13:30:51.861Z,96007.97
2024-01-18T13:33:21.301Z,96010.72
2024-01-18T13:35:50.999Z,96015.38
2024-01-18T13:38:20.278Z,96018.97
2024-01-18T13:40:49.494Z,96021.50
2024-01-18T13:43:18.907Z,96039.13
2024-01-18T13:45:48.158Z,96039.56
2024-01-18T13:48:17.967Z,96042.44
2024-01-18T13:50:47.386Z,96039.50
2024-01-18T13:53:19.398Z,96039.28
2024-01-18T13:55:49.566Z,96038.41
2024-01-18T13:58:19.354Z,96043.03
2024-01-18T14:00:52.657Z,96059.41
2024-01-18T14:03:22.130Z,96050.44
2024-01-18T14:05:51.818Z,96044.31
2024-01-18T14:08:21.116Z,96040.25
2024-01-18T14:10:50.409Z,96047.13
2024-01-18T14:13:21.646Z,96050.13
2024-01-18T14:15:52.296Z,96045.00
2024-01-18T14:18:23.121Z,96061.38
2024-01-18T14:20:52.565Z,96061.25
2024-01-18T14:23:21.865Z,96068.25
2024-01-18T14:25:51.203Z,96066.44
2024-01-18T14:28:21.914Z,96063.56
2024-01-18T14:30:51.451Z,96080.66
2024-01-18T14:33:22.774Z,96078.88
2024-01-18T14:35:52.701Z,96078.88
2024-01-18T14:38:22.742Z,96078.06
2024-01-18T14:40:52.073Z,96089.03
2024-01-18T14:43:21.479Z,96102.47
2024-01-18T14:45:50.850Z,96106.69
2024-01-18T14:48:20.339Z,96111.88
2024-01-18T14:50:49.913Z,96100.28
2024-01-18T14:53:19.241Z,96107.63
2024-01-18T14:55:48.511Z,96103.09
2024-01-18T14:58:17.939Z,96096.44
2024-01-18T15:00:47.293Z,96099.56
2024-01-18T15:03:16.921Z,96098.47
2024-01-18T15:05:46.492Z,96087.66
2024-01-18T15:08:15.885Z,96091.16
2024-01-18T15:10:46.004Z,96098.28
2024-01-18T15:13:15.794Z,96102.59
2024-01-18T15:15:46.695Z,96099.13
2024-01-18T15:18:17.083Z,96097.09
2024-01-18T15:20:49.034Z,96105.41
2024-01-18T15:23:19.454Z,96106.56
2024-01-18T15:25:48.796Z,96093.59
2024-01-18T15:28:18.180Z,96098.34
2024-01-18T15:30:47.410Z,96097.75
2024-01-18T15:33:17.614Z,96099.56
2024-01-18T15:35:47.150Z,96095.63
2024-01-18T15:38:16.484Z,96092.47
2024-01-18T15:40:46.281Z,96111.06
2024-01-18T15:43:17.019Z,96099.69
2024-01-18T15:45:46.355Z,96107.28
2024-01-18T15:48:20.550Z,96115.22
2024-01-18T15:50:50.156Z,96124.13
2024-01-18T15:53:19.488Z,96128.22
2024-01-18T15:55:48.840Z,96123.25
2024-01-18T15:58:18.123Z,96113.47
2024-01-18T16:00:47.530Z,96114.00
2024-01-18T16:03:17.625Z,96114.72
2024-01-18T16:05:47.131Z,96114.22
2024-01-18T16:08:16.495Z,96112.91
2024-01-18T16:10:45.729Z,96113.91
2024-01-18T16:13:15.116Z,96115.50
2024-01-18T16:15:44.712Z,96118.97
2024-01-18T16:18:14.195Z,96108.38
2024-01-18T16:20:46.290Z,96100.59
2024-01-18T16:23:15.565Z,96091.16
2024-01-18T16:25:46.613Z,96080.66
2024-01-18T16:28:18.909Z,96089.97
2024-01-18T16:30:48.515Z,96120.81
2024-01-18T16:33:18.043Z,96142.31
2024-01-18T16:35:47.494Z,96138.47
2024-01-18T16:38:16.904Z,96133.81
2024-01-18T16:40:46.825Z,96137.53
2024-01-18T16:43:16.175Z,96130.22
2024-01-18T16:45:45.813Z,96140.84
2024-01-18T16:48:15.251Z,96141.31
2024-01-18T16:50:44.764Z,96142.22
2024-01-18T16:53:14.368Z,96134.13
2024-01-18T16:55:44.683Z,96146.41
2024-01-18T16:58:13.998Z,96138.44
2024-01-18T17:00:43.344Z,96145.94
2024-01-18T17:03:12.631Z,96155.75
2024-01-18T17:05:42.582Z,96146.75
2024-01-18T17:08:12.302Z,96140.91
2024-01-18T17:10:41.711Z,96135.94
2024-01-18T17:13:11.000Z,96130.19
2024-01-18T17:15:40.321Z,96144.16
2024-01-18T17:18:10.266Z,96153.50
2024-01-18T17:20:40.121Z,96148.09
2024-01-18T17:23:09.923Z,96155.44
2024-01-18T17:25:39.233Z,96161.22
2024-01-18T17:28:08.592Z,96153.06
2024-01-18T17:30:37.873Z,96153.84
2024-01-18T17:33:07.459Z,96167.81
2024-01-18T17:35:36.973Z,96152.50
2024-01-18T17:38:07.950Z,96163.00
2024-01-18T17:40:37.517Z,96163.44
2024-01-18T17:43:06.882Z,96174.00
2024-01-18T17:45:36.205Z,96174.94
2024-01-18T17:48:07.620Z,96175.81
2024-01-18T17:50:37.245Z,96166.34
2024-01-18T17:53:06.887Z,96167.13
2024-01-18T17:55:37.034Z,96166.66
2024-01-18T17:58:06.559Z,96168.25
2024-01-18T18:00:40.064Z,96170.19
2024-01-18T18:03:09.971Z,96169.75
2024-01-18T18:05:39.639Z,96170.34
2024-01-18T18:08:09.030Z,96178.09
2024-01-18T18:10:38.363Z,96175.50
2024-01-18T18:13:07.925Z,96183.28
2024-01-18T18:15:42.027Z,96187.69
2024-01-18T18:18:16.788Z,96181.28
2024-01-18T18:20:46.261Z,96183.66
2024-01-18T18:23:15.840Z,96174.72
2024-01-18T18:25:45.204Z,96184.16
2024-01-18T18:28:14.684Z,96192.03
2024-01-18T18:30:52.607Z,96195.41
2024-01-18T18:33:27.538Z,96199.44
2024-01-18T18:35:57.036Z,96211.19
2024-01-18T18:38:30.490Z,96220.53
2024-01-18T18:41:04.434Z,96219.38
2024-01-18T18:43:33.776Z,96222.72
2024-01-18T18:46:03.131Z,96216.78
2024-01-18T18:48:32.584Z,96215.97
2024-01-18T18:51:02.010Z,96216.31
2024-01-18T18:53:31.483Z,96219.47
2024-01-18T18:56:01.368Z,96226.66
2024-01-18T18:58:30.722Z,96227.13
2024-01-18T19:01:01.950Z,96224.97
2024-01-18T19:03:31.444Z,96226.34
2024-01-18T19:06:00.962Z,96233.88
2024-01-18T19:08:30.672Z,96238.84
2024-01-18T19:10:59.936Z,96243.00
2024-01-18T19:13:29.261Z,96243.22
2024-01-18T19:15:59.285Z,96245.38
2024-01-18T19:18:28.908Z,96248.75
2024-01-18T19:20:58.493Z,96258.69
2024-01-18T19:23:27.754Z,96257.44
2024-01-18T19:25:57.928Z,96270.19
2024-01-18T19:28:27.360Z,96273.28
2024-01-18T19:30:56.803Z,96273.50
2024-01-18T19:33:26.157Z,96280.44
2024-01-18T19:35:55.514Z,96290.00
2024-01-18T19:38:25.230Z,96286.41
2024-01-18T19:40:55.890Z,96276.59
2024-01-18T19:43:25.298Z,96286.31
2024-01-18T19:45:59.224Z,96295.44
2024-01-18T19:48:28.597Z,96284.50
2024-01-18T19:50:58.066Z,96289.69
2024-01-18T19:53:27.600Z,96303.50
2024-01-18T19:55:57.253Z,96290.16
2024-01-18T19:58:27.851Z,96290.94
2024-01-18T20:00:59.041Z,96296.28
2024-01-18T20:03:28.672Z,96302.00
2024-01-18T20:05:59.239Z,96297.63
2024-01-18T20:08:30.630Z,96301.22
2024-01-18T20:10:59.969Z,96308.97
2024-01-18T20:13:29.297Z,96302.66
2024-01-18T20:15:59.024Z,96305.03
2024-01-18T20:18:28.366Z,96316.19
2024-01-18T20:20:57.810Z,96312.34
2024-01-18T20:23:27.762Z,96315.31
2024-01-18T20:25:57.237Z,96330.44
2024-01-18T20:28:26.892Z,96327.84
2024-01-18T20:30:56.514Z,96319.34
2024-01-18T20:33:26.197Z,96326.09
2024-01-18T20:36:00.671Z,96329.56
2024-01-18T20:38:30.419Z,96335.63
2024-01-18T20:40:59.898Z,96335.03
2024-01-18T20:43:29.389Z,96342.22
2024-01-18T20:45:58.713Z,96345.81
2024-01-18T20:48:28.583Z,96350.44
2024-01-18T20:50:58.080Z,96345.28
2024-01-18T20:53:28.269Z,96352.47
2024-01-18T20:55:58.069Z,96351.28
2024-01-18T20:58:27.615Z,96350.88
2024-01-18T21:00:56.987Z,96346.50
2024-01-18T21:03:26.451Z,96345.91
2024-01-18T21:05:56.050Z,96352.47
2024-01-18T21:08:26.205Z,96346.50
2024-01-18T21:10:55.453Z,96356.41
2024-01-18T21:13:24.817Z,96357.19
2024-01-18T21:15:54.241Z,96365.19
2024-01-18T21:18:23.715Z,96366.53
2024-01-18T21:20:53.047Z,96360.22
2024-01-18T21:23:23.340Z,96383.06
2024-01-18T21:25:52.788Z,96377.91
2024-01-18T21:28:22.137Z,96383.53
2024-01-18T21:30:51.676Z,96388.50
2024-01-18T21:33:21.104Z,96385.31
2024-01-18T21:35:50.483Z,96389.72
2024-01-18T21:38:19.796Z,96389.72
2024-01-18T21:40:49.366Z,96389.06
2024-01-18T21:43:18.675Z,96397.81
2024-01-18T21:45:47.993Z,96397.06
2024-01-18T21:48:17.496Z,96402.59
2024-01-18T21:50:47.537Z,96398.19
2024-01-18T21:53:17.504Z,96408.56
2024-01-18T21:55:46.973Z,96411.06
2024-01-18T21:58:16.733Z,96404.97
2024-01-18T22:00:46.130Z,96407.13
2024-01-18T22:03:15.958Z,96411.28
2024-01-18T22:05:45.358Z,96417.25
2024-01-18T22:08:14.781Z,96423.88
2024-01-18T22:10:44.146Z,96421.28
2024-01-18T22:13:13.552Z,96425.03
2024-01-18T22:15:42.940Z,96431.50
2024-01-18T22:18:12.407Z,96424.69
2024-01-18T22:20:41.752Z,96433.47
2024-01-18T22:23:11.994Z,96426.69
2024-01-18T22:25:41.546Z,96429.66
2024-01-18T22:28:10.929Z,96436.97
2024-01-18T22:30:40.450Z,96442.16
2024-01-18T22:33:09.829Z,96443.53
2024-01-18T22:35:39.187Z,96446.13
2024-01-18T22:38:08.833Z,96448.50
2024-01-18T22:40:38.484Z,96446.13
2024-01-18T22:43:07.771Z,96452.19
2024-01-18T22:45:37.205Z,96455.19
2024-01-18T22:48:08.929Z,96449.88
2024-01-18T22:50:38.705Z,96450.22
2024-01-18T22:53:08.139Z,96451.72
2024-01-18T22:55:37.464Z,96453.69
2024-01-18T22:58:06.846Z,96452.09
2024-01-18T23:00:36.139Z,96461.25
2024-01-18T23:03:06.152Z,96460.22
2024-01-18T23:05:35.442Z,96469.03
2024-01-18T23:08:05.185Z,96472.44
2024-01-18T23:10:35.252Z,96483.75
2024-01-18T23:13:04.835Z,96491.00
2024-01-18T23:15:34.146Z,96487.84
2024-01-18T23:18:03.778Z,96490.84
2024-01-18T23:20:33.058Z,96489.91
2024-01-18T23:23:02.359Z,96489.09
2024-01-18T23:25:31.711Z,96494.44
2024-01-18T23:28:01.087Z,96499.78
2024-01-18T23:30:30.393Z,96495.41
2024-01-18T23:32:59.680Z,96504.50
2024-01-18T23:35:29.084Z,96491.00
2024-01-18T23:37:58.373Z,96498.03
2024-01-18T23:40:27.790Z,96501.47
2024-01-18T23:42:57.249Z,96501.13
2024-01-18T23:45:27.076Z,96511.94
2024-01-18T23:47:56.391Z,96508.91
2024-01-18T23:50:25.734Z,96503.31
2024-01-18T23:52:55.932Z,96505.91
2024-01-18T23:55:25.214Z,96517.84
2024-01-18T23:57:54.423Z,96502.31
